createdAt,value
2018-02-24T00:02:26.090Z,23.77
2018-02-24T00:04:55.455Z,32.47
2018-02-24T00:07:27.968Z,31.70
2018-02-24T00:10:09.768Z,25.07
2018-02-24T00:13:03.432Z,22.93
2018-02-24T00:15:34.559Z,23.77
2018-02-24T00:18:03.801Z,26.83
2018-02-24T00:20:34.419Z,24.07
2018-02-24T00:23:07.121Z,26.07
2018-02-24T00:25:36.287Z,26.17
2018-02-24T00:28:04.839Z,30.30
2018-02-24T00:30:33.762Z,29.30
2018-02-24T00:33:02.227Z,26.43
2018-02-24T00:35:30.922Z,26.97
2018-02-24T00:38:02.194Z,26.10
2018-02-24T00:40:39.269Z,32.93
2018-02-24T00:43:09.654Z,26.73
2018-02-24T00:45:38.048Z,34.23
2018-02-24T00:48:06.528Z,27.90
2018-02-24T00:50:34.880Z,23.93
2018-02-24T00:53:03.240Z,28.70
2018-02-24T00:55:31.680Z,27.73
2018-02-24T00:58:00.287Z,32.03
2018-02-24T01:00:28.615Z,31.63
2018-02-24T01:02:56.902Z,37.63
2018-02-24T01:05:25.237Z,32.57
2018-02-24T01:07:53.565Z,27.57
2018-02-24T01:10:21.898Z,34.07
2018-02-24T01:12:50.379Z,27.07
2018-02-24T01:15:18.735Z,29.40
2018-02-24T01:17:47.016Z,29.90
2018-02-24T01:20:15.486Z,34.27
2018-02-24T01:22:43.816Z,33.83
2018-02-24T01:25:12.152Z,25.93
2018-02-24T01:27:40.542Z,32.00
2018-02-24T01:30:09.030Z,30.13
2018-02-24T01:32:37.340Z,32.13
2018-02-24T01:35:05.667Z,30.27
2018-02-24T01:37:34.096Z,32.90
2018-02-24T01:40:02.544Z,35.80
2018-02-24T01:42:30.896Z,34.33
2018-02-24T01:44:59.263Z,39.87
2018-02-24T01:47:27.646Z,44.40
2018-02-24T01:49:56.113Z,32.70
2018-02-24T01:52:24.503Z,35.47
2018-02-24T01:54:52.868Z,38.37
2018-02-24T01:57:21.298Z,28.57
2018-02-24T01:59:49.588Z,29.53
2018-02-24T02:02:17.883Z,28.43
2018-02-24T02:04:46.188Z,30.80
2018-02-24T02:07:14.518Z,31.90
2018-02-24T02:09:42.852Z,29.53
2018-02-24T02:12:11.233Z,28.90
2018-02-24T02:14:39.519Z,28.43
2018-02-24T02:17:07.865Z,29.63
2018-02-24T02:19:36.164Z,33.10
2018-02-24T02:22:04.497Z,28.70
2018-02-24T02:24:32.854Z,29.20
2018-02-24T02:27:01.154Z,28.60
2018-02-24T02:29:29.498Z,23.13
2018-02-24T02:31:57.810Z,27.10
2018-02-24T02:34:26.236Z,22.70
2018-02-24T02:36:54.675Z,27.60
2018-02-24T02:39:22.965Z,25.20
2018-02-24T02:41:51.328Z,25.17
2018-02-24T02:44:19.658Z,24.20
2018-02-24T02:46:48.184Z,23.93
2018-02-24T02:49:16.483Z,27.10
2018-02-24T02:51:44.837Z,23.53
2018-02-24T02:54:13.151Z,24.00
2018-02-24T02:56:41.476Z,31.33
2018-02-24T02:59:09.797Z,21.83
2018-02-24T03:01:38.127Z,22.30
2018-02-24T03:04:06.393Z,26.20
2018-02-24T03:06:34.693Z,26.33
2018-02-24T03:09:03.044Z,26.00
2018-02-24T03:11:31.363Z,25.60
2018-02-24T03:13:59.677Z,26.33
2018-02-24T03:16:27.979Z,29.00
2018-02-24T03:18:56.434Z,22.10
2018-02-24T03:21:24.743Z,28.33
2018-02-24T03:23:53.327Z,27.30
2018-02-24T03:26:21.655Z,27.17
2018-02-24T03:28:49.970Z,23.03
2018-02-24T03:31:18.276Z,21.30
2018-02-24T03:33:46.580Z,20.00
2018-02-24T03:36:14.896Z,20.43
2018-02-24T03:38:43.261Z,19.47
2018-02-24T03:41:11.898Z,23.30
2018-02-24T03:43:40.221Z,25.20
2018-02-24T03:46:08.552Z,26.00
2018-02-24T03:48:36.871Z,21.80
2018-02-24T03:51:05.285Z,19.17
2018-02-24T03:53:33.714Z,19.47
2018-02-24T03:56:02.169Z,21.80
2018-02-24T03:58:30.483Z,21.17
2018-02-24T04:00:58.852Z,23.07
2018-02-24T04:03:27.120Z,25.37
2018-02-24T04:05:56.786Z,19.43
2018-02-24T04:08:25.089Z,18.30
2018-02-24T04:10:53.379Z,20.57
2018-02-24T04:13:21.800Z,19.13
2018-02-24T04:15:50.109Z,17.90
2018-02-24T04:18:18.396Z,18.17
2018-02-24T04:20:46.803Z,20.57
2018-02-24T04:23:15.120Z,21.03
2018-02-24T04:25:43.486Z,20.07
2018-02-24T04:28:11.876Z,18.73
2018-02-24T04:30:40.491Z,20.87
2018-02-24T04:33:08.759Z,17.23
2018-02-24T04:35:37.217Z,19.57
2018-02-24T04:38:05.529Z,17.73
2018-02-24T04:40:34.042Z,17.10
2018-02-24T04:43:02.536Z,21.43
2018-02-24T04:45:30.873Z,18.00
2018-02-24T04:47:59.162Z,18.73
2018-02-24T04:50:27.578Z,17.20
2018-02-24T04:52:56.031Z,17.47
2018-02-24T04:55:24.336Z,19.60
2018-02-24T04:57:52.828Z,18.77
2018-02-24T05:03:16.735Z,15.20
2018-02-24T05:05:45.099Z,18.13
2018-02-24T05:08:13.384Z,18.63
2018-02-24T05:10:41.852Z,18.63
2018-02-24T05:13:10.139Z,15.37
2018-02-24T05:15:38.508Z,15.83
2018-02-24T05:18:06.872Z,18.27
2018-02-24T05:20:35.362Z,18.40
2018-02-24T05:23:03.829Z,20.37
2018-02-24T05:25:32.155Z,16.33
2018-02-24T05:28:00.521Z,18.03
2018-02-24T05:30:28.977Z,17.03
2018-02-24T05:32:57.321Z,17.10
2018-02-24T05:35:25.741Z,18.07
2018-02-24T05:37:54.026Z,17.73
2018-02-24T05:40:22.336Z,16.53
2018-02-24T05:42:50.655Z,15.80
2018-02-24T05:45:19.087Z,20.33
2018-02-24T05:47:47.410Z,19.10
2018-02-24T05:50:15.912Z,14.70
2018-02-24T05:52:44.355Z,17.60
2018-02-24T05:55:12.663Z,17.77
2018-02-24T05:57:40.956Z,18.63
2018-02-24T06:00:09.278Z,14.13
2018-02-24T06:02:37.783Z,18.50
2018-02-24T06:05:06.144Z,15.33
2018-02-24T06:07:34.471Z,16.30
2018-02-24T06:10:02.763Z,13.23
2018-02-24T06:12:31.095Z,14.93
2018-02-24T06:14:59.384Z,17.70
2018-02-24T06:17:27.819Z,14.27
2018-02-24T06:19:56.110Z,17.10
2018-02-24T06:22:24.448Z,14.57
2018-02-24T06:24:52.708Z,16.27
2018-02-24T06:27:21.041Z,12.10
2018-02-24T06:29:49.332Z,16.50
2018-02-24T06:32:17.691Z,12.53
2018-02-24T06:34:46.004Z,12.33
2018-02-24T06:37:14.751Z,13.40
2018-02-24T06:39:43.151Z,16.83
2018-02-24T06:42:11.484Z,11.33
2018-02-24T06:44:39.777Z,13.20
2018-02-24T06:47:08.156Z,11.77
2018-02-24T06:49:36.572Z,11.20
2018-02-24T06:52:04.981Z,14.70
2018-02-24T06:54:33.543Z,12.83
2018-02-24T06:57:01.953Z,13.40
2018-02-24T06:59:30.257Z,10.60
2018-02-24T07:01:58.608Z,9.20
2018-02-24T07:04:28.623Z,11.10
2018-02-24T07:06:57.180Z,7.83
2018-02-24T07:09:25.479Z,7.27
2018-02-24T07:11:54.012Z,8.60
2018-02-24T07:14:22.292Z,8.33
2018-02-24T07:16:51.683Z,4.83
2018-02-24T07:19:20.506Z,6.30
2018-02-24T07:21:50.019Z,9.80
2018-02-24T07:24:18.269Z,3.27
2018-02-24T07:26:46.864Z,4.10
2018-02-24T07:29:15.199Z,3.80
2018-02-24T07:31:43.961Z,6.13
2018-02-24T07:34:12.324Z,2.80
2018-02-24T07:36:40.868Z,8.53
2018-02-24T07:39:10.604Z,8.33
2018-02-24T07:41:39.680Z,3.73
2018-02-24T07:44:09.251Z,6.43
2018-02-24T07:46:38.015Z,4.63
2018-02-24T07:49:06.427Z,5.03
2018-02-24T07:51:34.875Z,5.00
2018-02-24T07:54:03.480Z,4.43
2018-02-24T07:56:31.920Z,4.23
2018-02-24T07:59:00.433Z,6.80
2018-02-24T08:01:28.998Z,2.60
2018-02-24T08:03:57.692Z,3.13
2018-02-24T08:06:26.376Z,2.37
2018-02-24T08:08:54.720Z,4.10
2018-02-24T08:11:23.184Z,8.33
2018-02-24T08:13:51.528Z,7.07
2018-02-24T08:16:20.033Z,3.73
2018-02-24T08:18:48.311Z,2.93
2018-02-24T08:21:16.815Z,4.10
2018-02-24T08:23:45.101Z,6.53
2018-02-24T08:26:13.412Z,2.00
2018-02-24T08:31:37.869Z,2.80
2018-02-24T08:34:07.460Z,2.67
2018-02-24T08:36:36.603Z,2.87
2018-02-24T08:39:05.366Z,6.77
2018-02-24T08:41:34.118Z,3.33
2018-02-24T08:44:03.130Z,2.77
2018-02-24T08:46:31.964Z,3.17
2018-02-24T08:49:00.850Z,3.10
2018-02-24T08:51:29.942Z,5.17
2018-02-24T08:53:59.869Z,2.40
2018-02-24T08:56:28.980Z,3.57
2018-02-24T08:58:59.291Z,9.07
2018-02-24T09:01:33.682Z,5.17
2018-02-24T09:04:03.419Z,4.40
2018-02-24T09:06:32.294Z,3.27
2018-02-24T09:09:01.405Z,1.40
2018-02-24T09:11:30.227Z,1.50
2018-02-24T09:13:59.390Z,1.57
2018-02-24T09:16:28.228Z,3.17
2018-02-24T09:18:57.041Z,6.93
2018-02-24T09:21:25.852Z,3.20
2018-02-24T09:23:55.299Z,3.63
2018-02-24T09:26:24.498Z,2.93
2018-02-24T09:28:53.335Z,1.90
2018-02-24T09:31:23.442Z,2.87
2018-02-24T09:33:52.358Z,3.60
2018-02-24T09:36:21.203Z,3.80
2018-02-24T09:38:50.149Z,3.83
2018-02-24T09:41:19.037Z,3.60
2018-02-24T09:43:49.520Z,11.73
2018-02-24T09:46:19.908Z,2.80
2018-02-24T09:48:49.999Z,2.63
2018-02-24T09:51:18.869Z,5.83
2018-02-24T09:53:47.980Z,2.30
2018-02-24T09:56:16.686Z,3.20
2018-02-24T09:58:46.383Z,3.63
2018-02-24T10:01:15.104Z,5.27
2018-02-24T10:03:43.961Z,3.07
2018-02-24T10:06:12.835Z,4.47
2018-02-24T10:08:41.785Z,4.17
2018-02-24T10:11:10.631Z,8.07
2018-02-24T10:13:39.312Z,8.80
2018-02-24T10:16:08.197Z,7.50
2018-02-24T10:18:37.082Z,8.53
2018-02-24T10:21:06.186Z,7.40
2018-02-24T10:23:35.262Z,7.80
2018-02-24T10:26:03.968Z,4.97
2018-02-24T10:28:33.122Z,5.97
2018-02-24T10:31:01.846Z,5.37
2018-02-24T10:33:30.729Z,3.50
2018-02-24T10:35:59.525Z,2.33
2018-02-24T10:38:28.838Z,3.40
2018-02-24T10:40:57.727Z,3.53
2018-02-24T10:43:26.492Z,4.30
2018-02-24T10:45:55.483Z,5.27
2018-02-24T10:48:24.396Z,3.17
2018-02-24T10:50:53.275Z,4.87
2018-02-24T10:53:22.185Z,2.97
2018-02-24T10:55:50.982Z,2.87
2018-02-24T10:58:19.956Z,3.17
2018-02-24T11:00:48.730Z,6.80
2018-02-24T11:03:17.591Z,3.33
2018-02-24T11:05:46.435Z,15.43
2018-02-24T11:08:15.276Z,5.73
2018-02-24T11:10:44.404Z,1.90
2018-02-24T11:13:13.505Z,3.93
2018-02-24T11:15:42.150Z,4.10
2018-02-24T11:18:11.076Z,3.57
2018-02-24T11:20:40.848Z,2.40
2018-02-24T11:23:09.467Z,4.83
2018-02-24T11:25:38.556Z,7.77
2018-02-24T11:28:07.462Z,9.10
2018-02-24T11:30:36.557Z,1.80
2018-02-24T11:33:05.301Z,4.60
2018-02-24T11:35:34.160Z,2.50
2018-02-24T11:38:03.227Z,3.87
2018-02-24T11:40:32.300Z,3.33
2018-02-24T11:43:01.422Z,5.30
2018-02-24T11:45:30.714Z,3.07
2018-02-24T11:47:59.537Z,4.40
2018-02-24T11:50:28.704Z,2.10
2018-02-24T11:53:00.153Z,4.80
2018-02-24T11:55:30.321Z,6.53
2018-02-24T11:57:59.496Z,7.63
2018-02-24T12:00:32.130Z,4.60
2018-02-24T12:03:02.600Z,2.70
2018-02-24T12:05:31.673Z,4.63
2018-02-24T12:08:00.768Z,2.13
2018-02-24T12:10:29.885Z,4.37
2018-02-24T12:12:58.650Z,2.70
2018-02-24T12:15:27.563Z,2.50
2018-02-24T12:17:57.207Z,3.57
2018-02-24T12:20:25.961Z,6.30
2018-02-24T12:22:55.138Z,4.67
2018-02-24T12:25:24.422Z,5.40
2018-02-24T12:27:53.324Z,3.97
2018-02-24T12:30:22.235Z,10.20
2018-02-24T12:32:51.095Z,4.00
2018-02-24T12:35:19.995Z,2.90
2018-02-24T12:37:48.889Z,4.30
2018-02-24T12:40:18.601Z,2.47
2018-02-24T12:42:47.679Z,8.13
2018-02-24T12:45:16.787Z,6.73
2018-02-24T12:47:45.443Z,6.00
2018-02-24T12:50:14.352Z,5.03
2018-02-24T12:52:43.249Z,3.73
2018-02-24T12:55:12.191Z,5.33
2018-02-24T12:57:41.035Z,6.77
2018-02-24T13:00:10.328Z,12.53
2018-02-24T13:02:39.423Z,3.43
2018-02-24T13:05:08.215Z,2.57
2018-02-24T13:07:37.368Z,2.93
2018-02-24T13:10:06.614Z,2.10
2018-02-24T13:12:35.479Z,2.80
2018-02-24T13:15:04.277Z,8.50
2018-02-24T13:17:33.078Z,2.50
2018-02-24T13:20:01.778Z,2.60
2018-02-24T13:22:30.752Z,8.60
2018-02-24T13:24:59.726Z,4.87
2018-02-24T13:27:28.934Z,3.47
2018-02-24T13:29:58.110Z,2.07
2018-02-24T13:32:27.131Z,5.03
2018-02-24T13:34:56.025Z,3.50
2018-02-24T13:37:25.314Z,2.97
2018-02-24T13:39:54.915Z,3.30
2018-02-24T13:42:23.928Z,3.00
2018-02-24T13:44:52.602Z,4.60
2018-02-24T13:47:21.698Z,3.30
2018-02-24T13:49:50.439Z,6.70
2018-02-24T13:52:20.100Z,4.40
2018-02-24T13:54:49.406Z,4.23
2018-02-24T13:57:18.295Z,4.20
2018-02-24T13:59:47.170Z,4.80
2018-02-24T14:02:16.069Z,4.23
2018-02-24T14:04:45.376Z,5.83
2018-02-24T14:07:14.254Z,5.03
2018-02-24T14:09:43.158Z,7.60
2018-02-24T14:12:11.930Z,3.93
2018-02-24T14:14:40.578Z,3.97
2018-02-24T14:17:09.378Z,2.57
2018-02-24T14:19:38.497Z,4.00
2018-02-24T14:22:07.369Z,5.17
2018-02-24T14:24:36.192Z,4.80
2018-02-24T14:27:05.315Z,5.43
2018-02-24T14:29:33.980Z,3.57
2018-02-24T14:32:02.864Z,3.87
2018-02-24T14:34:31.768Z,5.27
2018-02-24T14:37:00.844Z,4.73
2018-02-24T14:39:29.726Z,5.50
2018-02-24T14:41:59.242Z,4.73
2018-02-24T14:44:27.991Z,3.30
2018-02-24T14:46:56.851Z,4.20
2018-02-24T14:49:25.724Z,3.57
2018-02-24T14:51:55.427Z,3.77
2018-02-24T14:54:24.172Z,4.53
2018-02-24T14:56:54.439Z,4.03
2018-02-24T14:59:23.221Z,7.30
2018-02-24T15:01:52.211Z,5.83
2018-02-24T15:04:21.100Z,3.33
2018-02-24T15:06:49.991Z,4.33
2018-02-24T15:09:18.878Z,6.80
2018-02-24T15:11:47.675Z,6.83
2018-02-24T15:14:16.658Z,3.03
2018-02-24T15:16:45.602Z,5.13
2018-02-24T15:19:14.855Z,4.10
2018-02-24T15:21:43.791Z,6.23
2018-02-24T15:24:12.748Z,4.13
2018-02-24T15:26:41.621Z,3.17
2018-02-24T15:29:10.827Z,4.20
2018-02-24T15:31:39.844Z,4.07
2018-02-24T15:34:08.905Z,5.10
2018-02-24T15:36:38.010Z,3.03
2018-02-24T15:39:07.100Z,4.13
2018-02-24T15:41:35.911Z,4.20
2018-02-24T15:44:05.498Z,3.10
2018-02-24T15:46:34.185Z,2.33
2018-02-24T15:49:02.861Z,3.93
2018-02-24T15:51:31.960Z,3.33
2018-02-24T15:54:01.051Z,8.67
2018-02-24T15:56:30.123Z,5.63
2018-02-24T15:58:59.669Z,6.87
2018-02-24T16:01:28.705Z,4.40
2018-02-24T16:03:57.492Z,3.87
2018-02-24T16:06:26.331Z,3.67
2018-02-24T16:08:55.080Z,3.17
2018-02-24T16:11:23.821Z,4.90
2018-02-24T16:13:52.754Z,3.67
2018-02-24T16:16:21.919Z,4.30
2018-02-24T16:18:50.770Z,4.40
2018-02-24T16:21:19.869Z,3.40
2018-02-24T16:23:48.644Z,4.50
2018-02-24T16:26:17.660Z,6.47
2018-02-24T16:28:46.473Z,6.50
2018-02-24T16:31:15.437Z,4.07
2018-02-24T16:33:44.329Z,3.60
2018-02-24T16:36:13.420Z,6.47
2018-02-24T16:38:42.348Z,4.37
2018-02-24T16:41:12.825Z,6.23
2018-02-24T16:43:42.407Z,4.60
2018-02-24T16:46:11.318Z,3.63
2018-02-24T16:48:40.025Z,5.93
2018-02-24T16:51:09.238Z,6.03
2018-02-24T16:53:38.117Z,6.13
2018-02-24T16:56:07.481Z,5.17
2018-02-24T16:58:37.062Z,4.63
2018-02-24T17:01:06.006Z,6.20
2018-02-24T17:03:35.202Z,3.43
2018-02-24T17:06:04.071Z,5.67
2018-02-24T17:08:33.242Z,4.30
2018-02-24T17:11:02.092Z,4.90
2018-02-24T17:13:31.103Z,4.33
2018-02-24T17:15:59.791Z,4.80
2018-02-24T17:18:30.067Z,5.30
2018-02-24T17:21:00.662Z,5.70
2018-02-24T17:23:29.262Z,9.60
2018-02-24T17:25:58.125Z,3.70
2018-02-24T17:28:27.586Z,5.10
2018-02-24T17:30:56.384Z,7.63
2018-02-24T17:33:25.164Z,5.50
2018-02-24T17:35:54.035Z,8.73
2018-02-24T17:38:23.467Z,4.97
2018-02-24T17:40:52.451Z,3.97
2018-02-24T17:43:21.338Z,4.70
2018-02-24T17:45:50.448Z,4.80
2018-02-24T17:48:19.123Z,4.57
2018-02-24T17:50:48.209Z,5.93
2018-02-24T17:53:17.327Z,4.60
2018-02-24T17:55:46.271Z,3.77
2018-02-24T17:58:15.306Z,5.80
2018-02-24T18:00:44.115Z,5.53
2018-02-24T18:03:13.283Z,6.73
2018-02-24T18:05:42.185Z,3.93
2018-02-24T18:08:11.021Z,5.00
2018-02-24T18:10:40.001Z,6.13
2018-02-24T18:13:08.890Z,10.23
2018-02-24T18:15:37.937Z,5.13
2018-02-24T18:18:06.920Z,4.80
2018-02-24T18:20:35.839Z,7.00
2018-02-24T18:23:04.892Z,11.30
2018-02-24T18:25:33.706Z,5.10
2018-02-24T18:28:02.480Z,5.73
2018-02-24T18:30:33.802Z,5.93
2018-02-24T18:33:02.818Z,4.17
2018-02-24T18:35:31.732Z,4.97
2018-02-24T18:38:00.832Z,5.63
2018-02-24T18:40:29.491Z,7.50
2018-02-24T18:42:59.307Z,8.30
2018-02-24T18:45:28.332Z,6.67
2018-02-24T18:47:57.213Z,8.93
2018-02-24T18:50:26.279Z,5.40
2018-02-24T18:52:55.188Z,5.73
2018-02-24T18:55:24.079Z,5.90
2018-02-24T18:57:52.811Z,4.60
2018-02-24T19:00:22.727Z,3.30
2018-02-24T19:02:52.490Z,3.67
2018-02-24T19:05:21.689Z,15.90
2018-02-24T19:07:50.593Z,6.10
2018-02-24T19:10:19.726Z,4.87
2018-02-24T19:12:48.435Z,5.30
2018-02-24T19:15:17.267Z,5.73
2018-02-24T19:17:46.150Z,5.87
2018-02-24T19:20:15.246Z,5.63
2018-02-24T19:22:44.082Z,6.10
2018-02-24T19:25:13.319Z,7.20
2018-02-24T19:27:42.434Z,4.83
2018-02-24T19:30:11.373Z,3.93
2018-02-24T19:32:40.111Z,5.67
2018-02-24T19:35:09.157Z,5.00
2018-02-24T19:37:37.875Z,8.57
2018-02-24T19:40:06.671Z,4.07
2018-02-24T19:42:35.765Z,6.40
2018-02-24T19:45:04.675Z,3.33
2018-02-24T19:47:33.731Z,4.40
2018-02-24T19:50:02.654Z,3.40
2018-02-24T19:52:31.981Z,3.40
2018-02-24T19:55:07.381Z,5.77
2018-02-24T19:57:36.187Z,5.80
2018-02-24T20:00:05.084Z,7.97
2018-02-24T20:02:34.162Z,7.37
2018-02-24T20:05:03.058Z,5.83
2018-02-24T20:07:32.155Z,5.10
2018-02-24T20:10:04.481Z,3.37
2018-02-24T20:12:34.091Z,4.50
2018-02-24T20:15:03.400Z,7.43
2018-02-24T20:17:32.224Z,2.90
2018-02-24T20:20:01.484Z,3.13
2018-02-24T20:22:30.478Z,4.50
2018-02-24T20:24:59.354Z,4.00
2018-02-24T20:27:28.401Z,4.67
2018-02-24T20:29:58.005Z,5.60
2018-02-24T20:32:27.258Z,3.77
2018-02-24T20:34:56.194Z,3.77
2018-02-24T20:37:25.101Z,7.00
2018-02-24T20:39:54.184Z,5.60
2018-02-24T20:42:23.272Z,5.07
2018-02-24T20:44:52.383Z,3.50
2018-02-24T20:47:21.274Z,5.60
2018-02-24T20:49:50.165Z,4.90
2018-02-24T20:52:19.606Z,4.87
2018-02-24T20:54:48.459Z,5.93
2018-02-24T20:57:17.157Z,6.83
2018-02-24T20:59:46.127Z,4.73
2018-02-24T21:02:15.017Z,4.87
2018-02-24T21:04:43.904Z,4.57
2018-02-24T21:07:12.807Z,5.17
2018-02-24T21:09:41.675Z,6.33
2018-02-24T21:12:10.532Z,6.10
2018-02-24T21:14:39.354Z,6.70
2018-02-24T21:17:08.176Z,8.43
2018-02-24T21:19:38.085Z,4.67
2018-02-24T21:22:06.886Z,5.50
2018-02-24T21:24:36.126Z,4.37
2018-02-24T21:27:04.793Z,7.10
2018-02-24T21:29:33.643Z,7.27
2018-02-24T21:32:02.727Z,8.50
2018-02-24T21:34:31.903Z,5.70
2018-02-24T21:37:00.712Z,6.33
2018-02-24T21:39:29.599Z,6.60
2018-02-24T21:41:59.286Z,5.63
2018-02-24T21:44:28.006Z,8.07
2018-02-24T21:46:57.660Z,4.40
2018-02-24T21:49:29.130Z,6.87
2018-02-24T21:51:59.194Z,6.33
2018-02-24T21:54:28.643Z,5.50
2018-02-24T21:56:57.732Z,6.27
2018-02-24T21:59:26.379Z,8.90
2018-02-24T22:01:55.461Z,4.90
2018-02-24T22:04:25.376Z,5.40
2018-02-24T22:06:54.053Z,6.03
2018-02-24T22:09:23.140Z,6.97
2018-02-24T22:11:52.274Z,6.80
2018-02-24T22:14:20.977Z,4.10
2018-02-24T22:16:49.931Z,8.37
2018-02-24T22:19:18.810Z,7.00
2018-02-24T22:21:53.209Z,9.07
2018-02-24T22:24:24.611Z,6.80
2018-02-24T22:26:54.008Z,5.57
2018-02-24T22:29:24.720Z,6.60
2018-02-24T22:31:53.504Z,5.43
2018-02-24T22:34:24.910Z,4.37
2018-02-24T22:36:55.283Z,7.13
2018-02-24T22:39:24.275Z,4.53
2018-02-24T22:41:53.119Z,5.00
2018-02-24T22:44:22.606Z,4.87
2018-02-24T22:46:51.568Z,6.10
2018-02-24T22:49:23.524Z,4.00
2018-02-24T22:51:53.413Z,3.73
2018-02-24T22:54:22.524Z,4.97
2018-02-24T22:56:53.087Z,5.07
2018-02-24T22:59:22.169Z,3.97
2018-02-24T23:01:51.882Z,6.77
2018-02-24T23:04:21.393Z,6.07
2018-02-24T23:06:50.468Z,3.73
2018-02-24T23:09:19.359Z,5.27
2018-02-24T23:11:49.971Z,8.23
2018-02-24T23:14:18.988Z,4.30
2018-02-24T23:16:48.002Z,7.47
2018-02-24T23:19:17.154Z,7.87
2018-02-24T23:21:52.057Z,9.80
2018-02-24T23:24:21.308Z,5.20
2018-02-24T23:26:51.361Z,9.20
2018-02-24T23:29:20.418Z,5.60
2018-02-24T23:31:49.115Z,5.50
2018-02-24T23:34:17.893Z,5.93
2018-02-24T23:36:46.781Z,5.70
2018-02-24T23:39:21.998Z,9.80
2018-02-24T23:41:50.846Z,6.00
2018-02-24T23:44:20.008Z,5.40
2018-02-24T23:46:49.018Z,8.20
2018-02-24T23:49:18.290Z,6.57
2018-02-24T23:51:47.197Z,5.53
2018-02-24T23:54:16.083Z,7.67
2018-02-24T23:56:45.158Z,6.30
2018-02-24T23:59:14.288Z,6.47
